sensor_id;sensor_type;location;lat;lon;timestamp;P1;durP1;ratioP1;P2;durP2;ratioP2
11042;SDS011;5574;48.786;10.120;2023-04-25T00:01:32;4.50;;;2.73;;
11042;SDS011;5574;48.786;10.120;2023-04-25T00:04:02;2.40;;;2.20;;
11042;SDS011;5574;48.786;10.120;2023-04-25T00:06:30;2.30;;;2.10;;
11042;SDS011;5574;48.786;10.120;2023-04-25T00:08:57;2.23;;;2.10;;
11042;SDS011;5574;48.786;10.120;2023-04-25T00:11:24;2.50;;;2.30;;
11042;SDS011;5574;48.786;10.120;2023-04-25T00:13:51;2.80;;;2.20;;
11042;SDS011;5574;48.786;10.120;2023-04-25T00:16:17;2.70;;;2.47;;
11042;SDS011;5574;48.786;10.120;2023-04-25T00:18:44;2.93;;;2.60;;
11042;SDS011;5574;48.786;10.120;2023-04-25T00:21:17;2.70;;;2.50;;
11042;SDS011;5574;48.786;10.120;2023-04-25T00:23:44;3.03;;;2.70;;
11042;SDS011;5574;48.786;10.120;2023-04-25T00:26:11;3.10;;;2.50;;
11042;SDS011;5574;48.786;10.120;2023-04-25T00:28:38;3.10;;;2.30;;
11042;SDS011;5574;48.786;10.120;2023-04-25T00:31:05;5.33;;;2.87;;
11042;SDS011;5574;48.786;10.120;2023-04-25T00:33:32;3.93;;;2.20;;
11042;SDS011;5574;48.786;10.120;2023-04-25T00:35:59;2.97;;;2.37;;
11042;SDS011;5574;48.786;10.120;2023-04-25T00:38:27;3.57;;;2.40;;
11042;SDS011;5574;48.786;10.120;2023-04-25T00:40:54;3.50;;;2.27;;
11042;SDS011;5574;48.786;10.120;2023-04-25T00:43:22;2.37;;;2.10;;
11042;SDS011;5574;48.786;10.120;2023-04-25T00:45:50;3.00;;;2.60;;
11042;SDS011;5574;48.786;10.120;2023-04-25T00:48:19;2.40;;;2.20;;
11042;SDS011;5574;48.786;10.120;2023-04-25T00:50:48;4.23;;;2.93;;
11042;SDS011;5574;48.786;10.120;2023-04-25T00:53:18;2.60;;;1.83;;
11042;SDS011;5574;48.786;10.120;2023-04-25T00:55:47;2.13;;;1.93;;
11042;SDS011;5574;48.786;10.120;2023-04-25T00:58:15;1.93;;;1.83;;
11042;SDS011;5574;48.786;10.120;2023-04-25T01:00:42;2.83;;;2.53;;
11042;SDS011;5574;48.786;10.120;2023-04-25T01:03:10;3.77;;;2.13;;
11042;SDS011;5574;48.786;10.120;2023-04-25T01:05:37;2.20;;;2.00;;
11042;SDS011;5574;48.786;10.120;2023-04-25T01:08:05;2.20;;;2.10;;
11042;SDS011;5574;48.786;10.120;2023-04-25T01:10:32;4.30;;;2.50;;
11042;SDS011;5574;48.786;10.120;2023-04-25T01:13:00;2.50;;;2.17;;
11042;SDS011;5574;48.786;10.120;2023-04-25T01:15:26;4.07;;;2.20;;
11042;SDS011;5574;48.786;10.120;2023-04-25T01:17:53;2.40;;;2.20;;
11042;SDS011;5574;48.786;10.120;2023-04-25T01:20:21;3.33;;;2.50;;
11042;SDS011;5574;48.786;10.120;2023-04-25T01:22:50;2.70;;;2.47;;
11042;SDS011;5574;48.786;10.120;2023-04-25T01:25:17;3.30;;;2.57;;
11042;SDS011;5574;48.786;10.120;2023-04-25T01:27:44;3.07;;;2.50;;
11042;SDS011;5574;48.786;10.120;2023-04-25T01:30:11;4.50;;;3.50;;
11042;SDS011;5574;48.786;10.120;2023-04-25T01:32:39;3.50;;;2.63;;
11042;SDS011;5574;48.786;10.120;2023-04-25T01:35:08;2.87;;;2.63;;
11042;SDS011;5574;48.786;10.120;2023-04-25T01:37:36;3.30;;;3.00;;
11042;SDS011;5574;48.786;10.120;2023-04-25T01:40:04;4.63;;;3.50;;
11042;SDS011;5574;48.786;10.120;2023-04-25T01:42:32;4.40;;;3.10;;
11042;SDS011;5574;48.786;10.120;2023-04-25T01:44:59;3.37;;;2.50;;
11042;SDS011;5574;48.786;10.120;2023-04-25T01:47:26;3.00;;;2.40;;
11042;SDS011;5574;48.786;10.120;2023-04-25T01:49:52;2.60;;;2.00;;
11042;SDS011;5574;48.786;10.120;2023-04-25T01:52:19;1.73;;;1.60;;
11042;SDS011;5574;48.786;10.120;2023-04-25T01:54:46;1.90;;;1.70;;
11042;SDS011;5574;48.786;10.120;2023-04-25T01:57:15;2.40;;;1.73;;
11042;SDS011;5574;48.786;10.120;2023-04-25T01:59:41;1.97;;;1.80;;
11042;SDS011;5574;48.786;10.120;2023-04-25T02:02:09;1.50;;;1.40;;
11042;SDS011;5574;48.786;10.120;2023-04-25T02:04:35;1.87;;;1.70;;
11042;SDS011;5574;48.786;10.120;2023-04-25T02:07:03;1.80;;;1.70;;
11042;SDS011;5574;48.786;10.120;2023-04-25T02:09:30;2.43;;;1.70;;
11042;SDS011;5574;48.786;10.120;2023-04-25T02:11:57;1.80;;;1.70;;
11042;SDS011;5574;48.786;10.120;2023-04-25T02:14:26;1.90;;;1.70;;
11042;SDS011;5574;48.786;10.120;2023-04-25T02:16:53;2.03;;;1.60;;
11042;SDS011;5574;48.786;10.120;2023-04-25T02:19:20;1.87;;;1.63;;
11042;SDS011;5574;48.786;10.120;2023-04-25T02:21:47;1.60;;;1.50;;
11042;SDS011;5574;48.786;10.120;2023-04-25T02:24:13;1.67;;;1.57;;
11042;SDS011;5574;48.786;10.120;2023-04-25T02:26:40;1.70;;;1.60;;
11042;SDS011;5574;48.786;10.120;2023-04-25T02:29:07;2.27;;;1.67;;
11042;SDS011;5574;48.786;10.120;2023-04-25T02:31:35;1.77;;;1.67;;
11042;SDS011;5574;48.786;10.120;2023-04-25T02:34:01;1.97;;;1.70;;
11042;SDS011;5574;48.786;10.120;2023-04-25T02:36:28;2.30;;;1.73;;
11042;SDS011;5574;48.786;10.120;2023-04-25T02:38:57;2.17;;;1.97;;
11042;SDS011;5574;48.786;10.120;2023-04-25T02:41:23;1.87;;;1.77;;
11042;SDS011;5574;48.786;10.120;2023-04-25T02:43:50;2.10;;;1.90;;
11042;SDS011;5574;48.786;10.120;2023-04-25T02:46:17;2.30;;;2.10;;
11042;SDS011;5574;48.786;10.120;2023-04-25T02:48:45;1.90;;;1.80;;
11042;SDS011;5574;48.786;10.120;2023-04-25T02:51:11;2.20;;;1.80;;
11042;SDS011;5574;48.786;10.120;2023-04-25T02:53:38;2.00;;;1.80;;
11042;SDS011;5574;48.786;10.120;2023-04-25T02:56:05;3.63;;;1.70;;
11042;SDS011;5574;48.786;10.120;2023-04-25T02:58:32;1.80;;;1.70;;
11042;SDS011;5574;48.786;10.120;2023-04-25T03:00:59;2.40;;;1.80;;
11042;SDS011;5574;48.786;10.120;2023-04-25T03:03:25;2.53;;;1.80;;
11042;SDS011;5574;48.786;10.120;2023-04-25T03:05:53;2.40;;;2.20;;
11042;SDS011;5574;48.786;10.120;2023-04-25T03:08:20;2.43;;;2.13;;
11042;SDS011;5574;48.786;10.120;2023-04-25T03:10:47;2.17;;;1.77;;
11042;SDS011;5574;48.786;10.120;2023-04-25T03:13:15;1.93;;;1.83;;
11042;SDS011;5574;48.786;10.120;2023-04-25T03:15:41;1.97;;;1.87;;
11042;SDS011;5574;48.786;10.120;2023-04-25T03:18:08;2.10;;;1.90;;
11042;SDS011;5574;48.786;10.120;2023-04-25T03:20:35;1.90;;;1.80;;
11042;SDS011;5574;48.786;10.120;2023-04-25T03:23:03;2.00;;;1.83;;
11042;SDS011;5574;48.786;10.120;2023-04-25T03:25:30;1.67;;;1.57;;
11042;SDS011;5574;48.786;10.120;2023-04-25T03:27:56;1.90;;;1.70;;
11042;SDS011;5574;48.786;10.120;2023-04-25T03:30:23;1.80;;;1.70;;
11042;SDS011;5574;48.786;10.120;2023-04-25T03:32:50;2.10;;;1.90;;
11042;SDS011;5574;48.786;10.120;2023-04-25T03:35:16;2.10;;;1.90;;
11042;SDS011;5574;48.786;10.120;2023-04-25T03:37:43;3.60;;;1.87;;
11042;SDS011;5574;48.786;10.120;2023-04-25T03:40:12;2.10;;;1.90;;
11042;SDS011;5574;48.786;10.120;2023-04-25T03:42:38;2.80;;;2.33;;
11042;SDS011;5574;48.786;10.120;2023-04-25T03:45:06;2.73;;;2.20;;
11042;SDS011;5574;48.786;10.120;2023-04-25T03:47:33;2.30;;;1.90;;
11042;SDS011;5574;48.786;10.120;2023-04-25T03:50:00;3.23;;;2.00;;
11042;SDS011;5574;48.786;10.120;2023-04-25T03:52:27;2.37;;;2.07;;
11042;SDS011;5574;48.786;10.120;2023-04-25T03:54:54;2.20;;;2.00;;
11042;SDS011;5574;48.786;10.120;2023-04-25T03:57:22;2.57;;;1.97;;
11042;SDS011;5574;48.786;10.120;2023-04-25T03:59:49;3.23;;;2.33;;
11042;SDS011;5574;48.786;10.120;2023-04-25T04:02:17;2.43;;;2.20;;
11042;SDS011;5574;48.786;10.120;2023-04-25T04:04:44;3.07;;;2.13;;
11042;SDS011;5574;48.786;10.120;2023-04-25T04:07:10;2.53;;;2.33;;
11042;SDS011;5574;48.786;10.120;2023-04-25T04:09:37;2.83;;;2.40;;
11042;SDS011;5574;48.786;10.120;2023-04-25T04:12:04;2.63;;;2.20;;
11042;SDS011;5574;48.786;10.120;2023-04-25T04:14:32;2.70;;;2.30;;
11042;SDS011;5574;48.786;10.120;2023-04-25T04:16:59;2.33;;;2.13;;
11042;SDS011;5574;48.786;10.120;2023-04-25T04:19:26;2.27;;;2.00;;
11042;SDS011;5574;48.786;10.120;2023-04-25T04:21:52;3.53;;;2.30;;
11042;SDS011;5574;48.786;10.120;2023-04-25T04:24:19;2.23;;;2.03;;
11042;SDS011;5574;48.786;10.120;2023-04-25T04:26:46;2.90;;;2.40;;
11042;SDS011;5574;48.786;10.120;2023-04-25T04:29:12;3.53;;;3.23;;
11042;SDS011;5574;48.786;10.120;2023-04-25T04:31:47;3.20;;;2.87;;
11042;SDS011;5574;48.786;10.120;2023-04-25T04:34:14;4.57;;;3.00;;
11042;SDS011;5574;48.786;10.120;2023-04-25T04:36:41;3.80;;;2.83;;
11042;SDS011;5574;48.786;10.120;2023-04-25T04:39:08;2.40;;;2.20;;
11042;SDS011;5574;48.786;10.120;2023-04-25T04:41:36;4.33;;;1.97;;
11042;SDS011;5574;48.786;10.120;2023-04-25T04:44:02;3.00;;;2.20;;
11042;SDS011;5574;48.786;10.120;2023-04-25T04:46:29;3.47;;;2.50;;
11042;SDS011;5574;48.786;10.120;2023-04-25T04:48:57;2.70;;;2.20;;
11042;SDS011;5574;48.786;10.120;2023-04-25T04:51:24;2.40;;;2.20;;
11042;SDS011;5574;48.786;10.120;2023-04-25T04:53:51;4.03;;;2.80;;
11042;SDS011;5574;48.786;10.120;2023-04-25T04:56:17;3.60;;;2.63;;
11042;SDS011;5574;48.786;10.120;2023-04-25T04:58:45;2.33;;;2.23;;
11042;SDS011;5574;48.786;10.120;2023-04-25T05:01:13;3.60;;;2.10;;
11042;SDS011;5574;48.786;10.120;2023-04-25T05:03:41;3.17;;;2.23;;
11042;SDS011;5574;48.786;10.120;2023-04-25T05:06:09;3.33;;;2.20;;
11042;SDS011;5574;48.786;10.120;2023-04-25T05:08:36;5.90;;;2.47;;
11042;SDS011;5574;48.786;10.120;2023-04-25T05:11:02;1.87;;;1.77;;
11042;SDS011;5574;48.786;10.120;2023-04-25T05:13:29;3.03;;;2.10;;
11042;SDS011;5574;48.786;10.120;2023-04-25T05:15:56;2.07;;;1.97;;
11042;SDS011;5574;48.786;10.120;2023-04-25T05:18:23;2.20;;;2.00;;
11042;SDS011;5574;48.786;10.120;2023-04-25T05:20:49;3.07;;;2.10;;
11042;SDS011;5574;48.786;10.120;2023-04-25T05:23:17;2.43;;;2.20;;
11042;SDS011;5574;48.786;10.120;2023-04-25T05:25:44;2.60;;;2.40;;
11042;SDS011;5574;48.786;10.120;2023-04-25T05:28:11;2.50;;;2.30;;
11042;SDS011;5574;48.786;10.120;2023-04-25T05:30:39;3.03;;;2.40;;
11042;SDS011;5574;48.786;10.120;2023-04-25T05:33:06;2.80;;;2.30;;
11042;SDS011;5574;48.786;10.120;2023-04-25T05:35:33;2.43;;;2.17;;
11042;SDS011;5574;48.786;10.120;2023-04-25T05:37:59;2.80;;;2.50;;
11042;SDS011;5574;48.786;10.120;2023-04-25T05:40:27;3.10;;;2.80;;
11042;SDS011;5574;48.786;10.120;2023-04-25T05:42:54;3.17;;;2.50;;
11042;SDS011;5574;48.786;10.120;2023-04-25T05:45:21;3.10;;;2.50;;
11042;SDS011;5574;48.786;10.120;2023-04-25T05:47:48;3.50;;;2.60;;
11042;SDS011;5574;48.786;10.120;2023-04-25T05:50:15;3.10;;;2.30;;
11042;SDS011;5574;48.786;10.120;2023-04-25T05:52:42;4.00;;;2.63;;
11042;SDS011;5574;48.786;10.120;2023-04-25T05:55:09;2.43;;;2.20;;
11042;SDS011;5574;48.786;10.120;2023-04-25T05:57:37;2.07;;;1.93;;
11042;SDS011;5574;48.786;10.120;2023-04-25T06:00:06;4.07;;;2.40;;
11042;SDS011;5574;48.786;10.120;2023-04-25T06:02:34;3.97;;;2.40;;
11042;SDS011;5574;48.786;10.120;2023-04-25T06:05:01;4.60;;;2.50;;
11042;SDS011;5574;48.786;10.120;2023-04-25T06:07:29;3.30;;;2.67;;
11042;SDS011;5574;48.786;10.120;2023-04-25T06:09:55;3.20;;;2.67;;
11042;SDS011;5574;48.786;10.120;2023-04-25T06:12:22;4.17;;;3.27;;
11042;SDS011;5574;48.786;10.120;2023-04-25T06:14:50;3.73;;;2.90;;
11042;SDS011;5574;48.786;10.120;2023-04-25T06:17:17;5.77;;;3.10;;
11042;SDS011;5574;48.786;10.120;2023-04-25T06:19:44;6.70;;;3.63;;
11042;SDS011;5574;48.786;10.120;2023-04-25T06:22:10;4.63;;;3.80;;
11042;SDS011;5574;48.786;10.120;2023-04-25T06:24:37;7.00;;;3.80;;
11042;SDS011;5574;48.786;10.120;2023-04-25T06:27:04;3.47;;;3.17;;
11042;SDS011;5574;48.786;10.120;2023-04-25T06:29:30;3.03;;;2.40;;
11042;SDS011;5574;48.786;10.120;2023-04-25T06:31:58;2.73;;;2.47;;
11042;SDS011;5574;48.786;10.120;2023-04-25T06:34:25;4.20;;;2.73;;
11042;SDS011;5574;48.786;10.120;2023-04-25T06:36:52;2.43;;;2.30;;
11042;SDS011;5574;48.786;10.120;2023-04-25T06:39:18;2.73;;;2.40;;
11042;SDS011;5574;48.786;10.120;2023-04-25T06:41:48;5.10;;;2.73;;
11042;SDS011;5574;48.786;10.120;2023-04-25T06:44:14;2.67;;;2.43;;
11042;SDS011;5574;48.786;10.120;2023-04-25T06:46:41;2.87;;;2.50;;
11042;SDS011;5574;48.786;10.120;2023-04-25T06:49:09;3.47;;;3.17;;
11042;SDS011;5574;48.786;10.120;2023-04-25T06:51:36;4.00;;;2.70;;
11042;SDS011;5574;48.786;10.120;2023-04-25T06:54:02;2.90;;;2.60;;
11042;SDS011;5574;48.786;10.120;2023-04-25T06:56:30;2.90;;;2.70;;
11042;SDS011;5574;48.786;10.120;2023-04-25T06:58:57;3.70;;;2.50;;
11042;SDS011;5574;48.786;10.120;2023-04-25T07:01:25;3.50;;;2.47;;
11042;SDS011;5574;48.786;10.120;2023-04-25T07:03:52;3.47;;;2.83;;
11042;SDS011;5574;48.786;10.120;2023-04-25T07:06:20;3.00;;;2.70;;
11042;SDS011;5574;48.786;10.120;2023-04-25T07:08:46;4.37;;;2.60;;
11042;SDS011;5574;48.786;10.120;2023-04-25T07:11:13;2.60;;;2.40;;
11042;SDS011;5574;48.786;10.120;2023-04-25T07:13:40;3.10;;;2.80;;
11042;SDS011;5574;48.786;10.120;2023-04-25T07:16:06;2.70;;;2.50;;
11042;SDS011;5574;48.786;10.120;2023-04-25T07:18:33;3.20;;;2.40;;
11042;SDS011;5574;48.786;10.120;2023-04-25T07:21:00;3.07;;;2.70;;
11042;SDS011;5574;48.786;10.120;2023-04-25T07:23:28;3.10;;;2.33;;
11042;SDS011;5574;48.786;10.120;2023-04-25T07:25:55;5.97;;;2.67;;
11042;SDS011;5574;48.786;10.120;2023-04-25T07:28:21;3.30;;;2.83;;
11042;SDS011;5574;48.786;10.120;2023-04-25T07:30:48;3.07;;;2.87;;
11042;SDS011;5574;48.786;10.120;2023-04-25T07:33:15;5.17;;;3.20;;
11042;SDS011;5574;48.786;10.120;2023-04-25T07:35:41;12.23;;;4.10;;
11042;SDS011;5574;48.786;10.120;2023-04-25T07:38:08;3.37;;;3.07;;
11042;SDS011;5574;48.786;10.120;2023-04-25T07:40:36;2.90;;;2.60;;
11042;SDS011;5574;48.786;10.120;2023-04-25T07:43:03;3.70;;;2.93;;
11042;SDS011;5574;48.786;10.120;2023-04-25T07:45:29;3.57;;;2.77;;
11042;SDS011;5574;48.786;10.120;2023-04-25T07:47:56;3.10;;;2.80;;
11042;SDS011;5574;48.786;10.120;2023-04-25T07:50:23;3.50;;;2.80;;
11042;SDS011;5574;48.786;10.120;2023-04-25T07:52:50;2.93;;;2.47;;
11042;SDS011;5574;48.786;10.120;2023-04-25T07:55:16;7.00;;;2.73;;
11042;SDS011;5574;48.786;10.120;2023-04-25T07:57:44;5.10;;;3.10;;
11042;SDS011;5574;48.786;10.120;2023-04-25T08:00:11;2.97;;;2.77;;
11042;SDS011;5574;48.786;10.120;2023-04-25T08:02:39;5.97;;;3.20;;
11042;SDS011;5574;48.786;10.120;2023-04-25T08:05:07;4.80;;;2.80;;
11042;SDS011;5574;48.786;10.120;2023-04-25T08:07:36;2.80;;;2.60;;
11042;SDS011;5574;48.786;10.120;2023-04-25T08:10:03;3.13;;;2.37;;
11042;SDS011;5574;48.786;10.120;2023-04-25T08:12:31;3.90;;;2.70;;
11042;SDS011;5574;48.786;10.120;2023-04-25T08:14:59;2.90;;;2.60;;
11042;SDS011;5574;48.786;10.120;2023-04-25T08:17:26;2.90;;;2.70;;
11042;SDS011;5574;48.786;10.120;2023-04-25T08:19:53;3.20;;;2.30;;
11042;SDS011;5574;48.786;10.120;2023-04-25T08:22:20;22.77;;;4.43;;
11042;SDS011;5574;48.786;10.120;2023-04-25T08:24:47;5.57;;;1.87;;
11042;SDS011;5574;48.786;10.120;2023-04-25T08:27:13;2.50;;;2.20;;
11042;SDS011;5574;48.786;10.120;2023-04-25T08:29:41;24.77;;;4.40;;
11042;SDS011;5574;48.786;10.120;2023-04-25T08:32:09;2.30;;;2.10;;
11042;SDS011;5574;48.786;10.120;2023-04-25T08:34:35;8.57;;;2.57;;
11042;SDS011;5574;48.786;10.120;2023-04-25T08:37:04;4.33;;;2.50;;
11042;SDS011;5574;48.786;10.120;2023-04-25T08:39:31;3.00;;;2.70;;
11042;SDS011;5574;48.786;10.120;2023-04-25T08:41:57;6.13;;;3.10;;
11042;SDS011;5574;48.786;10.120;2023-04-25T08:44:25;3.20;;;3.00;;
11042;SDS011;5574;48.786;10.120;2023-04-25T08:46:52;10.03;;;3.30;;
11042;SDS011;5574;48.786;10.120;2023-04-25T08:49:22;3.90;;;2.90;;
11042;SDS011;5574;48.786;10.120;2023-04-25T08:51:50;4.63;;;3.03;;
11042;SDS011;5574;48.786;10.120;2023-04-25T08:54:17;2.80;;;2.60;;
11042;SDS011;5574;48.786;10.120;2023-04-25T08:56:48;3.10;;;2.90;;
11042;SDS011;5574;48.786;10.120;2023-04-25T08:59:15;2.90;;;2.70;;
11042;SDS011;5574;48.786;10.120;2023-04-25T09:01:43;3.80;;;3.17;;
11042;SDS011;5574;48.786;10.120;2023-04-25T09:04:10;5.87;;;3.30;;
11042;SDS011;5574;48.786;10.120;2023-04-25T09:06:39;4.17;;;3.10;;
11042;SDS011;5574;48.786;10.120;2023-04-25T09:09:06;12.07;;;4.20;;
11042;SDS011;5574;48.786;10.120;2023-04-25T09:11:36;4.10;;;3.47;;
11042;SDS011;5574;48.786;10.120;2023-04-25T09:14:12;2.80;;;2.60;;
11042;SDS011;5574;48.786;10.120;2023-04-25T09:19:35;2.90;;;2.70;;
11042;SDS011;5574;48.786;10.120;2023-04-25T09:22:06;2.80;;;2.60;;
11042;SDS011;5574;48.786;10.120;2023-04-25T09:24:34;4.27;;;2.70;;
11042;SDS011;5574;48.786;10.120;2023-04-25T09:27:03;4.93;;;2.80;;
11042;SDS011;5574;48.786;10.120;2023-04-25T09:29:31;4.53;;;2.60;;
11042;SDS011;5574;48.786;10.120;2023-04-25T09:34:53;8.67;;;2.90;;
11042;SDS011;5574;48.786;10.120;2023-04-25T09:37:22;2.30;;;2.20;;
11042;SDS011;5574;48.786;10.120;2023-04-25T09:39:50;2.17;;;2.07;;
11042;SDS011;5574;48.786;10.120;2023-04-25T09:42:21;4.10;;;2.40;;
11042;SDS011;5574;48.786;10.120;2023-04-25T09:44:48;4.17;;;2.30;;
11042;SDS011;5574;48.786;10.120;2023-04-25T09:47:17;2.23;;;2.13;;
11042;SDS011;5574;48.786;10.120;2023-04-25T09:49:46;2.70;;;2.43;;
11042;SDS011;5574;48.786;10.120;2023-04-25T09:52:13;5.07;;;2.80;;
11042;SDS011;5574;48.786;10.120;2023-04-25T09:54:43;2.37;;;2.10;;
11042;SDS011;5574;48.786;10.120;2023-04-25T09:57:11;2.80;;;2.60;;
11042;SDS011;5574;48.786;10.120;2023-04-25T09:59:39;2.63;;;2.43;;
11042;SDS011;5574;48.786;10.120;2023-04-25T10:02:09;3.33;;;2.70;;
11042;SDS011;5574;48.786;10.120;2023-04-25T10:04:36;2.73;;;2.53;;
11042;SDS011;5574;48.786;10.120;2023-04-25T10:07:05;3.20;;;2.90;;
11042;SDS011;5574;48.786;10.120;2023-04-25T10:09:32;3.17;;;2.87;;
11042;SDS011;5574;48.786;10.120;2023-04-25T10:12:03;4.07;;;2.73;;
11042;SDS011;5574;48.786;10.120;2023-04-25T10:14:32;3.27;;;2.80;;
11042;SDS011;5574;48.786;10.120;2023-04-25T10:16:59;3.27;;;2.90;;
11042;SDS011;5574;48.786;10.120;2023-04-25T10:19:26;4.53;;;2.93;;
11042;SDS011;5574;48.786;10.120;2023-04-25T10:21:54;3.23;;;2.93;;
11042;SDS011;5574;48.786;10.120;2023-04-25T10:24:28;3.30;;;3.00;;
11042;SDS011;5574;48.786;10.120;2023-04-25T10:26:55;2.80;;;2.60;;
11042;SDS011;5574;48.786;10.120;2023-04-25T10:29:25;3.63;;;3.00;;
11042;SDS011;5574;48.786;10.120;2023-04-25T10:31:52;3.67;;;3.13;;
11042;SDS011;5574;48.786;10.120;2023-04-25T10:34:19;3.07;;;2.87;;
11042;SDS011;5574;48.786;10.120;2023-04-25T10:36:50;4.57;;;3.17;;
11042;SDS011;5574;48.786;10.120;2023-04-25T10:39:22;4.10;;;3.27;;
11042;SDS011;5574;48.786;10.120;2023-04-25T10:41:53;9.10;;;4.07;;
11042;SDS011;5574;48.786;10.120;2023-04-25T10:44:22;3.30;;;3.00;;
11042;SDS011;5574;48.786;10.120;2023-04-25T10:46:50;3.33;;;3.03;;
11042;SDS011;5574;48.786;10.120;2023-04-25T10:49:33;3.70;;;3.40;;
11042;SDS011;5574;48.786;10.120;2023-04-25T10:52:11;3.70;;;3.40;;
11042;SDS011;5574;48.786;10.120;2023-04-25T10:54:51;3.90;;;3.60;;
11042;SDS011;5574;48.786;10.120;2023-04-25T10:57:28;5.03;;;3.53;;
11042;SDS011;5574;48.786;10.120;2023-04-25T11:00:00;5.70;;;3.70;;
11042;SDS011;5574;48.786;10.120;2023-04-25T11:02:32;4.17;;;3.73;;
11042;SDS011;5574;48.786;10.120;2023-04-25T11:05:03;4.33;;;3.93;;
11042;SDS011;5574;48.786;10.120;2023-04-25T11:07:34;3.87;;;3.57;;
11042;SDS011;5574;48.786;10.120;2023-04-25T11:10:04;4.40;;;4.00;;
11042;SDS011;5574;48.786;10.120;2023-04-25T11:12:31;5.00;;;3.93;;
11042;SDS011;5574;48.786;10.120;2023-04-25T11:14:59;4.87;;;4.30;;
11042;SDS011;5574;48.786;10.120;2023-04-25T11:17:29;4.65;;;4.25;;
11042;SDS011;5574;48.786;10.120;2023-04-25T11:19:57;4.40;;;4.00;;
11042;SDS011;5574;48.786;10.120;2023-04-25T11:22:23;5.37;;;4.43;;
11042;SDS011;5574;48.786;10.120;2023-04-25T11:24:52;4.57;;;3.90;;
11042;SDS011;5574;48.786;10.120;2023-04-25T11:27:19;5.30;;;4.30;;
11042;SDS011;5574;48.786;10.120;2023-04-25T11:29:46;4.57;;;4.17;;
11042;SDS011;5574;48.786;10.120;2023-04-25T11:32:14;4.17;;;3.80;;
11042;SDS011;5574;48.786;10.120;2023-04-25T11:34:42;4.33;;;3.40;;
11042;SDS011;5574;48.786;10.120;2023-04-25T11:37:12;5.20;;;3.63;;
11042;SDS011;5574;48.786;10.120;2023-04-25T11:39:42;4.30;;;3.90;;
11042;SDS011;5574;48.786;10.120;2023-04-25T11:42:10;3.90;;;3.50;;
11042;SDS011;5574;48.786;10.120;2023-04-25T11:44:37;3.50;;;3.20;;
11042;SDS011;5574;48.786;10.120;2023-04-25T11:47:05;3.00;;;2.80;;
11042;SDS011;5574;48.786;10.120;2023-04-25T11:49:32;4.20;;;3.10;;
11042;SDS011;5574;48.786;10.120;2023-04-25T11:52:00;3.43;;;3.13;;
11042;SDS011;5574;48.786;10.120;2023-04-25T11:54:28;3.03;;;2.83;;
11042;SDS011;5574;48.786;10.120;2023-04-25T11:56:55;3.63;;;3.20;;
11042;SDS011;5574;48.786;10.120;2023-04-25T11:59:23;4.07;;;3.60;;
11042;SDS011;5574;48.786;10.120;2023-04-25T12:01:51;3.93;;;3.33;;
11042;SDS011;5574;48.786;10.120;2023-04-25T12:04:18;4.27;;;3.57;;
11042;SDS011;5574;48.786;10.120;2023-04-25T12:06:46;5.20;;;4.30;;
11042;SDS011;5574;48.786;10.120;2023-04-25T12:09:14;3.93;;;3.20;;
11042;SDS011;5574;48.786;10.120;2023-04-25T12:11:44;3.47;;;2.80;;
11042;SDS011;5574;48.786;10.120;2023-04-25T12:14:12;3.23;;;3.00;;
11042;SDS011;5574;48.786;10.120;2023-04-25T12:16:46;3.00;;;2.80;;
11042;SDS011;5574;48.786;10.120;2023-04-25T12:19:14;2.63;;;2.40;;
11042;SDS011;5574;48.786;10.120;2023-04-25T12:21:41;2.77;;;2.57;;
11042;SDS011;5574;48.786;10.120;2023-04-25T12:24:12;2.57;;;2.37;;
11042;SDS011;5574;48.786;10.120;2023-04-25T12:26:51;2.57;;;2.37;;
11042;SDS011;5574;48.786;10.120;2023-04-25T12:29:19;2.90;;;2.70;;
11042;SDS011;5574;48.786;10.120;2023-04-25T12:31:48;2.70;;;2.20;;
11042;SDS011;5574;48.786;10.120;2023-04-25T12:34:16;2.30;;;2.20;;
11042;SDS011;5574;48.786;10.120;2023-04-25T12:36:43;2.60;;;2.40;;
11042;SDS011;5574;48.786;10.120;2023-04-25T12:39:14;2.80;;;2.60;;
11042;SDS011;5574;48.786;10.120;2023-04-25T12:41:41;3.10;;;2.90;;
11042;SDS011;5574;48.786;10.120;2023-04-25T12:44:10;2.87;;;2.67;;
11042;SDS011;5574;48.786;10.120;2023-04-25T12:46:36;3.47;;;3.17;;
11042;SDS011;5574;48.786;10.120;2023-04-25T12:49:03;3.30;;;3.10;;
11042;SDS011;5574;48.786;10.120;2023-04-25T12:51:32;3.10;;;2.73;;
11042;SDS011;5574;48.786;10.120;2023-04-25T12:53:58;4.47;;;3.17;;
11042;SDS011;5574;48.786;10.120;2023-04-25T12:56:25;3.10;;;2.80;;
11042;SDS011;5574;48.786;10.120;2023-04-25T12:58:52;3.70;;;3.40;;
11042;SDS011;5574;48.786;10.120;2023-04-25T13:01:20;3.70;;;3.07;;
11042;SDS011;5574;48.786;10.120;2023-04-25T13:03:47;4.10;;;3.27;;
11042;SDS011;5574;48.786;10.120;2023-04-25T13:06:14;3.00;;;2.70;;
11042;SDS011;5574;48.786;10.120;2023-04-25T13:08:41;2.83;;;2.57;;
11042;SDS011;5574;48.786;10.120;2023-04-25T13:11:08;3.60;;;2.80;;
11042;SDS011;5574;48.786;10.120;2023-04-25T13:13:35;3.00;;;2.70;;
11042;SDS011;5574;48.786;10.120;2023-04-25T13:16:02;3.00;;;2.70;;
11042;SDS011;5574;48.786;10.120;2023-04-25T13:18:30;4.17;;;2.63;;
11042;SDS011;5574;48.786;10.120;2023-04-25T13:20:58;2.80;;;2.60;;
11042;SDS011;5574;48.786;10.120;2023-04-25T13:23:25;3.47;;;3.00;;
11042;SDS011;5574;48.786;10.120;2023-04-25T13:25:54;2.83;;;2.37;;
11042;SDS011;5574;48.786;10.120;2023-04-25T13:28:22;3.93;;;3.03;;
11042;SDS011;5574;48.786;10.120;2023-04-25T13:30:49;3.63;;;3.13;;
11042;SDS011;5574;48.786;10.120;2023-04-25T13:33:16;3.97;;;3.00;;
11042;SDS011;5574;48.786;10.120;2023-04-25T13:35:44;3.80;;;3.00;;
11042;SDS011;5574;48.786;10.120;2023-04-25T13:38:18;3.17;;;2.77;;
11042;SDS011;5574;48.786;10.120;2023-04-25T13:40:45;3.00;;;2.70;;
11042;SDS011;5574;48.786;10.120;2023-04-25T13:43:12;2.80;;;2.60;;
11042;SDS011;5574;48.786;10.120;2023-04-25T13:45:39;3.03;;;2.73;;
11042;SDS011;5574;48.786;10.120;2023-04-25T13:48:05;3.20;;;2.97;;
11042;SDS011;5574;48.786;10.120;2023-04-25T13:50:32;3.37;;;2.93;;
11042;SDS011;5574;48.786;10.120;2023-04-25T13:53:00;3.30;;;3.00;;
11042;SDS011;5574;48.786;10.120;2023-04-25T13:55:27;4.10;;;3.30;;
11042;SDS011;5574;48.786;10.120;2023-04-25T13:57:53;3.87;;;3.40;;
11042;SDS011;5574;48.786;10.120;2023-04-25T14:00:20;3.47;;;3.17;;
11042;SDS011;5574;48.786;10.120;2023-04-25T14:02:47;3.50;;;3.00;;
11042;SDS011;5574;48.786;10.120;2023-04-25T14:05:14;3.10;;;2.90;;
11042;SDS011;5574;48.786;10.120;2023-04-25T14:07:41;2.83;;;2.63;;
11042;SDS011;5574;48.786;10.120;2023-04-25T14:10:09;2.37;;;2.17;;
11042;SDS011;5574;48.786;10.120;2023-04-25T14:12:36;2.87;;;2.67;;
11042;SDS011;5574;48.786;10.120;2023-04-25T14:15:03;2.60;;;2.40;;
11042;SDS011;5574;48.786;10.120;2023-04-25T14:17:30;3.20;;;2.90;;
11042;SDS011;5574;48.786;10.120;2023-04-25T14:19:57;3.60;;;2.87;;
11042;SDS011;5574;48.786;10.120;2023-04-25T14:22:24;4.03;;;3.23;;
11042;SDS011;5574;48.786;10.120;2023-04-25T14:24:51;3.33;;;2.40;;
11042;SDS011;5574;48.786;10.120;2023-04-25T14:27:19;3.87;;;2.67;;
11042;SDS011;5574;48.786;10.120;2023-04-25T14:29:46;3.17;;;2.67;;
11042;SDS011;5574;48.786;10.120;2023-04-25T14:32:12;3.73;;;3.00;;
11042;SDS011;5574;48.786;10.120;2023-04-25T14:34:39;2.17;;;1.97;;
11042;SDS011;5574;48.786;10.120;2023-04-25T14:37:06;1.63;;;1.53;;
11042;SDS011;5574;48.786;10.120;2023-04-25T14:39:32;1.80;;;1.30;;
11042;SDS011;5574;48.786;10.120;2023-04-25T14:41:59;1.50;;;1.40;;
11042;SDS011;5574;48.786;10.120;2023-04-25T14:44:27;1.50;;;1.40;;
11042;SDS011;5574;48.786;10.120;2023-04-25T14:46:54;1.67;;;1.30;;
11042;SDS011;5574;48.786;10.120;2023-04-25T14:49:21;1.77;;;1.53;;
11042;SDS011;5574;48.786;10.120;2023-04-25T14:51:48;1.70;;;1.60;;
11042;SDS011;5574;48.786;10.120;2023-04-25T14:54:15;2.00;;;1.70;;
11042;SDS011;5574;48.786;10.120;2023-04-25T14:56:42;1.90;;;1.67;;